sensor_id;sensor_type;location;lat;lon;timestamp;P1;durP1;ratioP1;P2;durP2;ratioP2
84297;SDS011;74466;51.188;3.242;2023-12-22T00:01:20;23.17;;;2.50;;
84297;SDS011;74466;51.188;3.242;2023-12-22T00:03:46;19.30;;;2.25;;
84297;SDS011;74466;51.188;3.242;2023-12-22T00:06:12;15.00;;;2.15;;
84297;SDS011;74466;51.188;3.242;2023-12-22T00:08:39;17.45;;;2.40;;
84297;SDS011;74466;51.188;3.242;2023-12-22T00:11:06;20.08;;;2.95;;
84297;SDS011;74466;51.188;3.242;2023-12-22T00:13:32;18.48;;;2.63;;
84297;SDS011;74466;51.188;3.242;2023-12-22T00:15:59;23.25;;;2.65;;
84297;SDS011;74466;51.188;3.242;2023-12-22T00:18:25;22.88;;;2.20;;
84297;SDS011;74466;51.188;3.242;2023-12-22T00:20:51;12.77;;;2.00;;
84297;SDS011;74466;51.188;3.242;2023-12-22T00:23:17;15.30;;;2.05;;
84297;SDS011;74466;51.188;3.242;2023-12-22T00:25:43;15.93;;;2.15;;
84297;SDS011;74466;51.188;3.242;2023-12-22T00:28:08;14.25;;;1.90;;
84297;SDS011;74466;51.188;3.242;2023-12-22T00:30:34;17.38;;;2.35;;
84297;SDS011;74466;51.188;3.242;2023-12-22T00:33:00;22.30;;;2.42;;
84297;SDS011;74466;51.188;3.242;2023-12-22T00:35:26;19.23;;;2.60;;
84297;SDS011;74466;51.188;3.242;2023-12-22T00:37:52;15.90;;;2.40;;
84297;SDS011;74466;51.188;3.242;2023-12-22T00:40:18;15.85;;;2.58;;
84297;SDS011;74466;51.188;3.242;2023-12-22T00:42:44;24.58;;;2.90;;
84297;SDS011;74466;51.188;3.242;2023-12-22T00:45:09;18.65;;;2.45;;
84297;SDS011;74466;51.188;3.242;2023-12-22T00:47:36;19.67;;;2.30;;
84297;SDS011;74466;51.188;3.242;2023-12-22T00:50:03;21.40;;;2.78;;
84297;SDS011;74466;51.188;3.242;2023-12-22T00:52:31;19.23;;;2.28;;
84297;SDS011;74466;51.188;3.242;2023-12-22T00:54:57;25.45;;;2.80;;
84297;SDS011;74466;51.188;3.242;2023-12-22T00:57:22;23.38;;;2.83;;
84297;SDS011;74466;51.188;3.242;2023-12-22T00:59:48;22.73;;;2.70;;
84297;SDS011;74466;51.188;3.242;2023-12-22T01:02:15;20.73;;;2.45;;
84297;SDS011;74466;51.188;3.242;2023-12-22T01:04:41;21.05;;;2.40;;
84297;SDS011;74466;51.188;3.242;2023-12-22T01:07:07;20.90;;;2.58;;
84297;SDS011;74466;51.188;3.242;2023-12-22T01:09:34;19.50;;;2.28;;
84297;SDS011;74466;51.188;3.242;2023-12-22T01:12:00;22.60;;;2.33;;
84297;SDS011;74466;51.188;3.242;2023-12-22T01:14:29;22.00;;;2.55;;
84297;SDS011;74466;51.188;3.242;2023-12-22T01:16:55;16.77;;;2.20;;
84297;SDS011;74466;51.188;3.242;2023-12-22T01:19:21;17.90;;;2.50;;
84297;SDS011;74466;51.188;3.242;2023-12-22T01:21:47;16.92;;;1.98;;
84297;SDS011;74466;51.188;3.242;2023-12-22T01:24:13;14.90;;;1.80;;
84297;SDS011;74466;51.188;3.242;2023-12-22T01:26:38;17.95;;;2.00;;
84297;SDS011;74466;51.188;3.242;2023-12-22T01:29:05;17.40;;;2.10;;
84297;SDS011;74466;51.188;3.242;2023-12-22T01:31:30;16.73;;;2.28;;
84297;SDS011;74466;51.188;3.242;2023-12-22T01:33:56;16.20;;;1.55;;
84297;SDS011;74466;51.188;3.242;2023-12-22T01:36:22;10.57;;;1.60;;
84297;SDS011;74466;51.188;3.242;2023-12-22T01:38:48;13.52;;;1.83;;
84297;SDS011;74466;51.188;3.242;2023-12-22T01:41:13;17.02;;;1.70;;
84297;SDS011;74466;51.188;3.242;2023-12-22T01:43:39;23.70;;;2.08;;
84297;SDS011;74466;51.188;3.242;2023-12-22T01:46:05;18.48;;;1.73;;
84297;SDS011;74466;51.188;3.242;2023-12-22T01:48:32;17.65;;;2.20;;
84297;SDS011;74466;51.188;3.242;2023-12-22T01:50:59;20.10;;;2.42;;
84297;SDS011;74466;51.188;3.242;2023-12-22T01:53:27;23.48;;;3.35;;
84297;SDS011;74466;51.188;3.242;2023-12-22T01:55:54;21.55;;;2.80;;
84297;SDS011;74466;51.188;3.242;2023-12-22T01:58:22;20.02;;;2.40;;
84297;SDS011;74466;51.188;3.242;2023-12-22T02:00:48;22.73;;;2.38;;
84297;SDS011;74466;51.188;3.242;2023-12-22T02:03:14;20.50;;;2.65;;
84297;SDS011;74466;51.188;3.242;2023-12-22T02:05:42;23.98;;;3.08;;
84297;SDS011;74466;51.188;3.242;2023-12-22T02:08:09;24.75;;;3.90;;
84297;SDS011;74466;51.188;3.242;2023-12-22T02:10:36;24.55;;;2.88;;
84297;SDS011;74466;51.188;3.242;2023-12-22T02:13:03;28.95;;;3.40;;
84297;SDS011;74466;51.188;3.242;2023-12-22T02:15:29;26.40;;;3.05;;
84297;SDS011;74466;51.188;3.242;2023-12-22T02:18:00;26.77;;;3.15;;
84297;SDS011;74466;51.188;3.242;2023-12-22T02:20:32;22.42;;;2.53;;
84297;SDS011;74466;51.188;3.242;2023-12-22T02:22:58;27.05;;;2.88;;
84297;SDS011;74466;51.188;3.242;2023-12-22T02:25:24;24.58;;;2.95;;
84297;SDS011;74466;51.188;3.242;2023-12-22T02:27:50;20.98;;;2.80;;
84297;SDS011;74466;51.188;3.242;2023-12-22T02:30:31;26.20;;;2.83;;
84297;SDS011;74466;51.188;3.242;2023-12-22T02:33:03;21.27;;;3.00;;
84297;SDS011;74466;51.188;3.242;2023-12-22T02:35:30;27.58;;;3.10;;
84297;SDS011;74466;51.188;3.242;2023-12-22T02:37:59;22.75;;;2.53;;
84297;SDS011;74466;51.188;3.242;2023-12-22T02:40:28;24.23;;;2.53;;
84297;SDS011;74466;51.188;3.242;2023-12-22T02:42:54;20.13;;;2.67;;
84297;SDS011;74466;51.188;3.242;2023-12-22T02:45:21;25.10;;;2.70;;
84297;SDS011;74466;51.188;3.242;2023-12-22T02:47:46;28.83;;;3.30;;
84297;SDS011;74466;51.188;3.242;2023-12-22T02:50:14;23.77;;;2.65;;
84297;SDS011;74466;51.188;3.242;2023-12-22T02:52:41;23.33;;;2.50;;
84297;SDS011;74466;51.188;3.242;2023-12-22T02:55:07;24.73;;;3.38;;
84297;SDS011;74466;51.188;3.242;2023-12-22T02:57:33;32.10;;;3.35;;
84297;SDS011;74466;51.188;3.242;2023-12-22T02:59:59;23.20;;;2.95;;
84297;SDS011;74466;51.188;3.242;2023-12-22T03:02:25;29.17;;;3.10;;
84297;SDS011;74466;51.188;3.242;2023-12-22T03:04:51;22.92;;;2.90;;
84297;SDS011;74466;51.188;3.242;2023-12-22T03:07:17;27.58;;;2.88;;
84297;SDS011;74466;51.188;3.242;2023-12-22T03:09:43;24.80;;;2.90;;
84297;SDS011;74466;51.188;3.242;2023-12-22T03:12:09;24.40;;;3.00;;
84297;SDS011;74466;51.188;3.242;2023-12-22T03:14:35;21.92;;;3.00;;
84297;SDS011;74466;51.188;3.242;2023-12-22T03:17:02;33.60;;;3.45;;
84297;SDS011;74466;51.188;3.242;2023-12-22T03:19:29;29.63;;;2.90;;
84297;SDS011;74466;51.188;3.242;2023-12-22T03:21:56;23.67;;;2.90;;
84297;SDS011;74466;51.188;3.242;2023-12-22T03:24:22;27.23;;;3.25;;
84297;SDS011;74466;51.188;3.242;2023-12-22T03:26:49;27.77;;;4.30;;
84297;SDS011;74466;51.188;3.242;2023-12-22T03:29:15;30.23;;;4.45;;
84297;SDS011;74466;51.188;3.242;2023-12-22T03:31:42;23.70;;;3.05;;
84297;SDS011;74466;51.188;3.242;2023-12-22T03:34:08;26.88;;;3.30;;
84297;SDS011;74466;51.188;3.242;2023-12-22T03:36:34;25.35;;;3.10;;
84297;SDS011;74466;51.188;3.242;2023-12-22T03:39:00;24.85;;;3.58;;
84297;SDS011;74466;51.188;3.242;2023-12-22T03:41:26;30.05;;;3.35;;
84297;SDS011;74466;51.188;3.242;2023-12-22T03:43:52;20.83;;;3.33;;
84297;SDS011;74466;51.188;3.242;2023-12-22T03:46:17;26.50;;;3.20;;
84297;SDS011;74466;51.188;3.242;2023-12-22T03:48:44;28.35;;;3.40;;
84297;SDS011;74466;51.188;3.242;2023-12-22T03:51:09;24.77;;;3.17;;
84297;SDS011;74466;51.188;3.242;2023-12-22T03:53:39;28.80;;;3.08;;
84297;SDS011;74466;51.188;3.242;2023-12-22T03:56:06;22.17;;;3.17;;
84297;SDS011;74466;51.188;3.242;2023-12-22T03:58:33;31.65;;;3.30;;
84297;SDS011;74466;51.188;3.242;2023-12-22T04:00:59;31.75;;;3.70;;
84297;SDS011;74466;51.188;3.242;2023-12-22T04:03:25;22.67;;;3.08;;
84297;SDS011;74466;51.188;3.242;2023-12-22T04:05:51;21.60;;;3.25;;
84297;SDS011;74466;51.188;3.242;2023-12-22T04:08:17;26.13;;;2.95;;
84297;SDS011;74466;51.188;3.242;2023-12-22T04:10:45;22.33;;;3.15;;
84297;SDS011;74466;51.188;3.242;2023-12-22T04:13:10;23.17;;;3.00;;
84297;SDS011;74466;51.188;3.242;2023-12-22T04:15:36;26.13;;;3.20;;
84297;SDS011;74466;51.188;3.242;2023-12-22T04:18:02;27.70;;;2.92;;
84297;SDS011;74466;51.188;3.242;2023-12-22T04:20:27;28.77;;;3.00;;
84297;SDS011;74466;51.188;3.242;2023-12-22T04:22:53;20.23;;;2.70;;
84297;SDS011;74466;51.188;3.242;2023-12-22T04:25:19;23.80;;;3.30;;
84297;SDS011;74466;51.188;3.242;2023-12-22T04:27:45;26.60;;;2.45;;
84297;SDS011;74466;51.188;3.242;2023-12-22T04:30:10;28.77;;;3.35;;
84297;SDS011;74466;51.188;3.242;2023-12-22T04:32:36;32.22;;;3.35;;
84297;SDS011;74466;51.188;3.242;2023-12-22T04:35:02;27.45;;;3.47;;
84297;SDS011;74466;51.188;3.242;2023-12-22T04:37:29;22.33;;;2.88;;
84297;SDS011;74466;51.188;3.242;2023-12-22T04:39:55;22.27;;;2.90;;
84297;SDS011;74466;51.188;3.242;2023-12-22T04:42:21;24.70;;;3.03;;
84297;SDS011;74466;51.188;3.242;2023-12-22T04:44:46;21.63;;;2.38;;
84297;SDS011;74466;51.188;3.242;2023-12-22T04:47:12;18.27;;;2.58;;
84297;SDS011;74466;51.188;3.242;2023-12-22T04:49:42;24.50;;;3.00;;
84297;SDS011;74466;51.188;3.242;2023-12-22T04:52:08;18.20;;;2.83;;
84297;SDS011;74466;51.188;3.242;2023-12-22T04:54:33;24.08;;;2.90;;
84297;SDS011;74466;51.188;3.242;2023-12-22T04:56:59;21.88;;;2.40;;
84297;SDS011;74466;51.188;3.242;2023-12-22T04:59:25;12.63;;;2.20;;
84297;SDS011;74466;51.188;3.242;2023-12-22T05:01:50;17.88;;;2.25;;
84297;SDS011;74466;51.188;3.242;2023-12-22T05:04:16;17.25;;;2.63;;
84297;SDS011;74466;51.188;3.242;2023-12-22T05:06:43;22.25;;;3.10;;
84297;SDS011;74466;51.188;3.242;2023-12-22T05:09:10;20.65;;;2.25;;
84297;SDS011;74466;51.188;3.242;2023-12-22T05:11:36;17.63;;;2.80;;
84297;SDS011;74466;51.188;3.242;2023-12-22T05:14:02;17.92;;;2.20;;
84297;SDS011;74466;51.188;3.242;2023-12-22T05:16:27;20.35;;;2.70;;
84297;SDS011;74466;51.188;3.242;2023-12-22T05:18:56;19.80;;;2.58;;
84297;SDS011;74466;51.188;3.242;2023-12-22T05:21:23;19.88;;;2.47;;
84297;SDS011;74466;51.188;3.242;2023-12-22T05:23:49;19.52;;;2.50;;
84297;SDS011;74466;51.188;3.242;2023-12-22T05:26:18;24.63;;;2.88;;
84297;SDS011;74466;51.188;3.242;2023-12-22T05:28:47;24.85;;;2.47;;
84297;SDS011;74466;51.188;3.242;2023-12-22T05:31:16;25.85;;;2.75;;
84297;SDS011;74466;51.188;3.242;2023-12-22T05:33:42;24.20;;;3.10;;
84297;SDS011;74466;51.188;3.242;2023-12-22T05:36:08;24.95;;;2.60;;
84297;SDS011;74466;51.188;3.242;2023-12-22T05:38:37;24.48;;;2.63;;
84297;SDS011;74466;51.188;3.242;2023-12-22T05:41:04;23.63;;;2.53;;
84297;SDS011;74466;51.188;3.242;2023-12-22T05:43:31;14.75;;;1.92;;
84297;SDS011;74466;51.188;3.242;2023-12-22T05:45:58;14.57;;;2.22;;
84297;SDS011;74466;51.188;3.242;2023-12-22T05:48:24;19.02;;;2.50;;
84297;SDS011;74466;51.188;3.242;2023-12-22T05:50:53;17.98;;;2.42;;
84297;SDS011;74466;51.188;3.242;2023-12-22T05:53:27;20.35;;;2.00;;
84297;SDS011;74466;51.188;3.242;2023-12-22T05:55:53;20.67;;;2.15;;
84297;SDS011;74466;51.188;3.242;2023-12-22T05:58:19;19.35;;;2.10;;
84297;SDS011;74466;51.188;3.242;2023-12-22T06:00:45;20.65;;;2.45;;
84297;SDS011;74466;51.188;3.242;2023-12-22T06:03:10;21.65;;;2.50;;
84297;SDS011;74466;51.188;3.242;2023-12-22T06:05:36;18.80;;;2.20;;
84297;SDS011;74466;51.188;3.242;2023-12-22T06:08:02;19.15;;;2.15;;
84297;SDS011;74466;51.188;3.242;2023-12-22T06:10:28;17.73;;;2.00;;
84297;SDS011;74466;51.188;3.242;2023-12-22T06:12:54;15.95;;;2.10;;
84297;SDS011;74466;51.188;3.242;2023-12-22T06:15:19;15.10;;;1.90;;
84297;SDS011;74466;51.188;3.242;2023-12-22T06:17:45;13.32;;;1.67;;
84297;SDS011;74466;51.188;3.242;2023-12-22T06:20:10;15.68;;;2.00;;
84297;SDS011;74466;51.188;3.242;2023-12-22T06:22:36;15.23;;;1.70;;
84297;SDS011;74466;51.188;3.242;2023-12-22T06:25:02;13.85;;;1.73;;
84297;SDS011;74466;51.188;3.242;2023-12-22T06:27:32;12.80;;;1.80;;
84297;SDS011;74466;51.188;3.242;2023-12-22T06:29:58;11.85;;;1.52;;
84297;SDS011;74466;51.188;3.242;2023-12-22T06:32:24;17.75;;;1.67;;
84297;SDS011;74466;51.188;3.242;2023-12-22T06:34:50;19.42;;;2.30;;
84297;SDS011;74466;51.188;3.242;2023-12-22T06:37:17;13.32;;;3.40;;
84297;SDS011;74466;51.188;3.242;2023-12-22T06:39:43;13.50;;;1.70;;
84297;SDS011;74466;51.188;3.242;2023-12-22T06:42:08;11.48;;;1.77;;
84297;SDS011;74466;51.188;3.242;2023-12-22T06:44:37;10.00;;;2.00;;
84297;SDS011;74466;51.188;3.242;2023-12-22T06:47:03;13.75;;;1.60;;
84297;SDS011;74466;51.188;3.242;2023-12-22T06:49:30;10.63;;;1.60;;
84297;SDS011;74466;51.188;3.242;2023-12-22T06:51:55;11.90;;;1.50;;
84297;SDS011;74466;51.188;3.242;2023-12-22T06:54:21;8.18;;;1.10;;
84297;SDS011;74466;51.188;3.242;2023-12-22T06:56:47;8.57;;;2.08;;
84297;SDS011;74466;51.188;3.242;2023-12-22T06:59:12;6.93;;;0.90;;
84297;SDS011;74466;51.188;3.242;2023-12-22T07:01:38;7.38;;;1.10;;
84297;SDS011;74466;51.188;3.242;2023-12-22T07:04:04;6.63;;;1.13;;
84297;SDS011;74466;51.188;3.242;2023-12-22T07:06:32;3.70;;;0.85;;
84297;SDS011;74466;51.188;3.242;2023-12-22T07:11:39;7.63;;;1.30;;
84297;SDS011;74466;51.188;3.242;2023-12-22T07:14:08;6.43;;;1.20;;
84297;SDS011;74466;51.188;3.242;2023-12-22T07:16:35;6.13;;;1.30;;
84297;SDS011;74466;51.188;3.242;2023-12-22T07:19:01;7.75;;;1.63;;
84297;SDS011;74466;51.188;3.242;2023-12-22T07:21:27;7.43;;;1.48;;
84297;SDS011;74466;51.188;3.242;2023-12-22T07:23:53;9.88;;;1.80;;
84297;SDS011;74466;51.188;3.242;2023-12-22T07:26:18;12.43;;;1.67;;
84297;SDS011;74466;51.188;3.242;2023-12-22T07:28:46;8.32;;;1.55;;
84297;SDS011;74466;51.188;3.242;2023-12-22T07:31:13;11.05;;;1.92;;
84297;SDS011;74466;51.188;3.242;2023-12-22T07:33:39;10.30;;;2.83;;
84297;SDS011;74466;51.188;3.242;2023-12-22T07:36:05;14.45;;;2.30;;
84297;SDS011;74466;51.188;3.242;2023-12-22T07:38:32;10.88;;;2.35;;
84297;SDS011;74466;51.188;3.242;2023-12-22T07:40:58;10.35;;;2.00;;
84297;SDS011;74466;51.188;3.242;2023-12-22T07:43:24;12.35;;;1.88;;
84297;SDS011;74466;51.188;3.242;2023-12-22T07:45:50;10.90;;;1.70;;
84297;SDS011;74466;51.188;3.242;2023-12-22T07:48:16;11.65;;;1.80;;
84297;SDS011;74466;51.188;3.242;2023-12-22T07:50:42;15.68;;;2.30;;
84297;SDS011;74466;51.188;3.242;2023-12-22T07:53:08;10.43;;;1.73;;
84297;SDS011;74466;51.188;3.242;2023-12-22T07:55:34;12.55;;;1.95;;
84297;SDS011;74466;51.188;3.242;2023-12-22T07:58:01;10.27;;;1.80;;
84297;SDS011;74466;51.188;3.242;2023-12-22T08:00:26;10.40;;;1.80;;
84297;SDS011;74466;51.188;3.242;2023-12-22T08:02:53;14.05;;;1.80;;
84297;SDS011;74466;51.188;3.242;2023-12-22T08:05:18;14.60;;;1.42;;
84297;SDS011;74466;51.188;3.242;2023-12-22T08:07:44;9.70;;;1.52;;
84297;SDS011;74466;51.188;3.242;2023-12-22T08:10:10;15.50;;;1.60;;
84297;SDS011;74466;51.188;3.242;2023-12-22T08:12:36;9.18;;;1.70;;
84297;SDS011;74466;51.188;3.242;2023-12-22T08:15:02;6.97;;;1.40;;
84297;SDS011;74466;51.188;3.242;2023-12-22T08:17:28;14.10;;;1.80;;
84297;SDS011;74466;51.188;3.242;2023-12-22T08:19:54;7.05;;;1.30;;
84297;SDS011;74466;51.188;3.242;2023-12-22T08:22:21;10.48;;;1.30;;
84297;SDS011;74466;51.188;3.242;2023-12-22T08:24:47;10.82;;;1.75;;
84297;SDS011;74466;51.188;3.242;2023-12-22T08:27:13;8.93;;;1.42;;
84297;SDS011;74466;51.188;3.242;2023-12-22T08:29:40;6.20;;;1.05;;
84297;SDS011;74466;51.188;3.242;2023-12-22T08:32:06;7.63;;;1.10;;
84297;SDS011;74466;51.188;3.242;2023-12-22T08:34:32;8.90;;;1.40;;
84297;SDS011;74466;51.188;3.242;2023-12-22T08:36:58;9.27;;;1.17;;
84297;SDS011;74466;51.188;3.242;2023-12-22T08:39:25;6.78;;;1.40;;
84297;SDS011;74466;51.188;3.242;2023-12-22T08:41:51;9.95;;;1.60;;
84297;SDS011;74466;51.188;3.242;2023-12-22T08:44:18;12.45;;;1.50;;
84297;SDS011;74466;51.188;3.242;2023-12-22T08:46:43;7.78;;;1.13;;
84297;SDS011;74466;51.188;3.242;2023-12-22T08:49:10;12.10;;;1.75;;
84297;SDS011;74466;51.188;3.242;2023-12-22T08:51:36;8.18;;;1.02;;
84297;SDS011;74466;51.188;3.242;2023-12-22T08:54:02;9.20;;;1.38;;
84297;SDS011;74466;51.188;3.242;2023-12-22T08:56:30;11.70;;;1.20;;
84297;SDS011;74466;51.188;3.242;2023-12-22T08:58:56;7.90;;;1.10;;
84297;SDS011;74466;51.188;3.242;2023-12-22T09:01:24;9.43;;;1.10;;
84297;SDS011;74466;51.188;3.242;2023-12-22T09:03:50;8.20;;;1.08;;
84297;SDS011;74466;51.188;3.242;2023-12-22T09:06:18;6.88;;;0.90;;
84297;SDS011;74466;51.188;3.242;2023-12-22T09:08:45;8.75;;;0.88;;
84297;SDS011;74466;51.188;3.242;2023-12-22T09:11:11;10.73;;;1.08;;
84297;SDS011;74466;51.188;3.242;2023-12-22T09:13:40;8.68;;;1.10;;
84297;SDS011;74466;51.188;3.242;2023-12-22T09:16:06;9.85;;;1.10;;
84297;SDS011;74466;51.188;3.242;2023-12-22T09:18:33;14.35;;;1.63;;
84297;SDS011;74466;51.188;3.242;2023-12-22T09:20:59;9.35;;;1.10;;
84297;SDS011;74466;51.188;3.242;2023-12-22T09:23:25;6.03;;;1.27;;
84297;SDS011;74466;51.188;3.242;2023-12-22T09:25:51;9.43;;;1.10;;
84297;SDS011;74466;51.188;3.242;2023-12-22T09:28:17;9.40;;;1.00;;
84297;SDS011;74466;51.188;3.242;2023-12-22T09:30:43;7.60;;;0.75;;
84297;SDS011;74466;51.188;3.242;2023-12-22T09:33:09;8.23;;;1.10;;
84297;SDS011;74466;51.188;3.242;2023-12-22T09:35:36;7.70;;;1.13;;
84297;SDS011;74466;51.188;3.242;2023-12-22T09:38:02;8.77;;;1.67;;
84297;SDS011;74466;51.188;3.242;2023-12-22T09:40:28;10.00;;;1.00;;
84297;SDS011;74466;51.188;3.242;2023-12-22T09:42:55;10.15;;;1.48;;
84297;SDS011;74466;51.188;3.242;2023-12-22T09:45:23;11.82;;;1.75;;
84297;SDS011;74466;51.188;3.242;2023-12-22T09:47:49;8.27;;;1.15;;
84297;SDS011;74466;51.188;3.242;2023-12-22T09:50:18;9.35;;;1.00;;
84297;SDS011;74466;51.188;3.242;2023-12-22T09:52:45;9.68;;;1.10;;
84297;SDS011;74466;51.188;3.242;2023-12-22T09:55:11;8.10;;;1.20;;
84297;SDS011;74466;51.188;3.242;2023-12-22T09:57:39;10.02;;;1.10;;
84297;SDS011;74466;51.188;3.242;2023-12-22T10:00:09;9.48;;;1.20;;
84297;SDS011;74466;51.188;3.242;2023-12-22T10:02:37;9.57;;;1.10;;
84297;SDS011;74466;51.188;3.242;2023-12-22T10:05:05;7.18;;;1.20;;
84297;SDS011;74466;51.188;3.242;2023-12-22T10:07:31;5.68;;;0.85;;
84297;SDS011;74466;51.188;3.242;2023-12-22T10:09:58;10.45;;;1.00;;
84297;SDS011;74466;51.188;3.242;2023-12-22T10:12:26;6.18;;;0.77;;
84297;SDS011;74466;51.188;3.242;2023-12-22T10:14:55;5.25;;;0.80;;
84297;SDS011;74466;51.188;3.242;2023-12-22T10:17:23;11.50;;;1.20;;
84297;SDS011;74466;51.188;3.242;2023-12-22T10:19:49;9.63;;;1.00;;
84297;SDS011;74466;51.188;3.242;2023-12-22T10:22:14;7.63;;;0.98;;
84297;SDS011;74466;51.188;3.242;2023-12-22T10:24:41;10.77;;;0.93;;
84297;SDS011;74466;51.188;3.242;2023-12-22T10:27:09;6.80;;;0.80;;
84297;SDS011;74466;51.188;3.242;2023-12-22T10:29:36;7.72;;;1.00;;
84297;SDS011;74466;51.188;3.242;2023-12-22T10:32:03;12.68;;;1.17;;
84297;SDS011;74466;51.188;3.242;2023-12-22T10:34:32;6.07;;;1.10;;
84297;SDS011;74466;51.188;3.242;2023-12-22T10:37:01;5.70;;;0.75;;
84297;SDS011;74466;51.188;3.242;2023-12-22T10:39:28;12.90;;;1.30;;
84297;SDS011;74466;51.188;3.242;2023-12-22T10:42:00;5.10;;;0.68;;
84297;SDS011;74466;51.188;3.242;2023-12-22T10:44:26;10.07;;;1.52;;
84297;SDS011;74466;51.188;3.242;2023-12-22T10:46:53;8.98;;;1.00;;
84297;SDS011;74466;51.188;3.242;2023-12-22T10:49:20;8.32;;;0.90;;
84297;SDS011;74466;51.188;3.242;2023-12-22T10:51:46;9.32;;;1.20;;
84297;SDS011;74466;51.188;3.242;2023-12-22T10:54:12;10.77;;;1.35;;
84297;SDS011;74466;51.188;3.242;2023-12-22T10:56:39;9.52;;;0.82;;
84297;SDS011;74466;51.188;3.242;2023-12-22T10:59:05;7.18;;;0.80;;
84297;SDS011;74466;51.188;3.242;2023-12-22T11:01:31;11.52;;;1.00;;
84297;SDS011;74466;51.188;3.242;2023-12-22T11:04:03;8.38;;;0.82;;
84297;SDS011;74466;51.188;3.242;2023-12-22T11:06:41;11.93;;;1.40;;
84297;SDS011;74466;51.188;3.242;2023-12-22T11:09:09;8.35;;;1.00;;
84297;SDS011;74466;51.188;3.242;2023-12-22T11:11:39;7.75;;;1.00;;
84297;SDS011;74466;51.188;3.242;2023-12-22T11:14:06;11.75;;;1.05;;
84297;SDS011;74466;51.188;3.242;2023-12-22T11:16:33;10.95;;;1.35;;
84297;SDS011;74466;51.188;3.242;2023-12-22T11:19:03;10.23;;;1.25;;
84297;SDS011;74466;51.188;3.242;2023-12-22T11:21:30;6.95;;;0.90;;
84297;SDS011;74466;51.188;3.242;2023-12-22T11:23:56;7.72;;;1.45;;
84297;SDS011;74466;51.188;3.242;2023-12-22T11:26:23;10.43;;;1.10;;
84297;SDS011;74466;51.188;3.242;2023-12-22T11:28:50;12.52;;;1.58;;
84297;SDS011;74466;51.188;3.242;2023-12-22T11:31:17;8.55;;;1.52;;
84297;SDS011;74466;51.188;3.242;2023-12-22T11:33:44;6.75;;;1.30;;
84297;SDS011;74466;51.188;3.242;2023-12-22T11:36:15;7.97;;;1.27;;
84297;SDS011;74466;51.188;3.242;2023-12-22T11:38:42;8.30;;;1.27;;
84297;SDS011;74466;51.188;3.242;2023-12-22T11:41:09;8.57;;;1.40;;
84297;SDS011;74466;51.188;3.242;2023-12-22T11:43:44;6.68;;;1.00;;
84297;SDS011;74466;51.188;3.242;2023-12-22T11:46:11;7.03;;;1.00;;
84297;SDS011;74466;51.188;3.242;2023-12-22T11:48:37;10.38;;;1.27;;
84297;SDS011;74466;51.188;3.242;2023-12-22T11:51:14;9.77;;;1.40;;
84297;SDS011;74466;51.188;3.242;2023-12-22T11:53:40;6.72;;;1.20;;
84297;SDS011;74466;51.188;3.242;2023-12-22T11:56:06;10.55;;;1.45;;
84297;SDS011;74466;51.188;3.242;2023-12-22T11:58:34;6.72;;;1.13;;
84297;SDS011;74466;51.188;3.242;2023-12-22T12:01:01;13.85;;;1.10;;
84297;SDS011;74466;51.188;3.242;2023-12-22T12:03:30;8.75;;;0.98;;
84297;SDS011;74466;51.188;3.242;2023-12-22T12:06:16;6.40;;;0.90;;
84297;SDS011;74466;51.188;3.242;2023-12-22T12:08:46;11.13;;;1.25;;
84297;SDS011;74466;51.188;3.242;2023-12-22T12:11:14;9.75;;;1.27;;
84297;SDS011;74466;51.188;3.242;2023-12-22T12:13:43;7.88;;;0.95;;
84297;SDS011;74466;51.188;3.242;2023-12-22T12:16:28;7.40;;;1.15;;
84297;SDS011;74466;51.188;3.242;2023-12-22T12:18:54;5.82;;;1.08;;
84297;SDS011;74466;51.188;3.242;2023-12-22T12:21:20;5.53;;;1.10;;
84297;SDS011;74466;51.188;3.242;2023-12-22T12:23:47;5.78;;;0.95;;
84297;SDS011;74466;51.188;3.242;2023-12-22T12:26:13;9.43;;;0.85;;
84297;SDS011;74466;51.188;3.242;2023-12-22T12:28:40;9.75;;;1.20;;
84297;SDS011;74466;51.188;3.242;2023-12-22T12:31:11;6.50;;;0.82;;
84297;SDS011;74466;51.188;3.242;2023-12-22T12:33:36;6.82;;;0.90;;
84297;SDS011;74466;51.188;3.242;2023-12-22T12:36:03;8.13;;;0.88;;
84297;SDS011;74466;51.188;3.242;2023-12-22T12:41:36;6.93;;;0.95;;
84297;SDS011;74466;51.188;3.242;2023-12-22T12:44:08;6.85;;;0.80;;
84297;SDS011;74466;51.188;3.242;2023-12-22T12:46:35;8.55;;;1.02;;
84297;SDS011;74466;51.188;3.242;2023-12-22T12:49:06;11.55;;;1.15;;
84297;SDS011;74466;51.188;3.242;2023-12-22T12:51:39;8.13;;;0.80;;
84297;SDS011;74466;51.188;3.242;2023-12-22T12:56:39;9.32;;;1.10;;
84297;SDS011;74466;51.188;3.242;2023-12-22T12:59:13;10.43;;;1.38;;
84297;SDS011;74466;51.188;3.242;2023-12-22T13:04:08;7.78;;;0.70;;
84297;SDS011;74466;51.188;3.242;2023-12-22T13:06:35;8.70;;;0.90;;
84297;SDS011;74466;51.188;3.242;2023-12-22T13:09:01;9.88;;;0.95;;
84297;SDS011;74466;51.188;3.242;2023-12-22T13:11:28;10.10;;;1.30;;
84297;SDS011;74466;51.188;3.242;2023-12-22T13:13:56;12.70;;;1.27;;
84297;SDS011;74466;51.188;3.242;2023-12-22T13:16:22;10.48;;;1.27;;
84297;SDS011;74466;51.188;3.242;2023-12-22T13:21:22;8.32;;;1.50;;
84297;SDS011;74466;51.188;3.242;2023-12-22T13:26:36;11.25;;;1.80;;
84297;SDS011;74466;51.188;3.242;2023-12-22T13:29:02;5.95;;;0.98;;
84297;SDS011;74466;51.188;3.242;2023-12-22T13:31:29;9.98;;;1.40;;
84297;SDS011;74466;51.188;3.242;2023-12-22T13:33:56;8.73;;;1.08;;
84297;SDS011;74466;51.188;3.242;2023-12-22T13:36:22;9.82;;;1.10;;
84297;SDS011;74466;51.188;3.242;2023-12-22T13:38:48;10.13;;;1.42;;
84297;SDS011;74466;51.188;3.242;2023-12-22T13:41:15;8.40;;;0.80;;
84297;SDS011;74466;51.188;3.242;2023-12-22T13:43:41;8.38;;;1.35;;
84297;SDS011;74466;51.188;3.242;2023-12-22T13:46:07;5.00;;;0.90;;
84297;SDS011;74466;51.188;3.242;2023-12-22T13:48:35;7.65;;;1.20;;
84297;SDS011;74466;51.188;3.242;2023-12-22T13:51:02;8.02;;;1.00;;
84297;SDS011;74466;51.188;3.242;2023-12-22T13:53:28;9.13;;;1.10;;
84297;SDS011;74466;51.188;3.242;2023-12-22T13:55:55;11.98;;;1.23;;
84297;SDS011;74466;51.188;3.242;2023-12-22T13:58:25;10.07;;;1.10;;
84297;SDS011;74466;51.188;3.242;2023-12-22T14:00:52;8.20;;;1.20;;
84297;SDS011;74466;51.188;3.242;2023-12-22T14:03:19;7.15;;;1.08;;
84297;SDS011;74466;51.188;3.242;2023-12-22T14:05:48;5.32;;;1.17;;
84297;SDS011;74466;51.188;3.242;2023-12-22T14:08:14;5.90;;;1.23;;
84297;SDS011;74466;51.188;3.242;2023-12-22T14:10:47;6.90;;;1.00;;
84297;SDS011;74466;51.188;3.242;2023-12-22T14:13:16;12.98;;;1.40;;
84297;SDS011;74466;51.188;3.242;2023-12-22T14:15:42;10.80;;;1.50;;
84297;SDS011;74466;51.188;3.242;2023-12-22T14:18:09;7.65;;;1.00;;
84297;SDS011;74466;51.188;3.242;2023-12-22T14:20:35;7.68;;;0.93;;
84297;SDS011;74466;51.188;3.242;2023-12-22T14:23:01;8.30;;;1.10;;
84297;SDS011;74466;51.188;3.242;2023-12-22T14:25:27;8.48;;;0.90;;
84297;SDS011;74466;51.188;3.242;2023-12-22T14:27:53;8.13;;;1.00;;
84297;SDS011;74466;51.188;3.242;2023-12-22T14:30:22;6.18;;;1.17;;
84297;SDS011;74466;51.188;3.242;2023-12-22T14:32:48;7.32;;;1.10;;
84297;SDS011;74466;51.188;3.242;2023-12-22T14:35:14;10.73;;;1.20;;
84297;SDS011;74466;51.188;3.242;2023-12-22T14:37:41;11.48;;;1.08;;
84297;SDS011;74466;51.188;3.242;2023-12-22T14:40:08;7.47;;;1.20;;
84297;SDS011;74466;51.188;3.242;2023-12-22T14:42:34;8.07;;;1.05;;
84297;SDS011;74466;51.188;3.242;2023-12-22T14:45:00;5.97;;;0.90;;
84297;SDS011;74466;51.188;3.242;2023-12-22T14:47:29;10.60;;;1.08;;
84297;SDS011;74466;51.188;3.242;2023-12-22T14:49:55;5.25;;;1.10;;
84297;SDS011;74466;51.188;3.242;2023-12-22T14:52:26;9.88;;;1.10;;